createdAt,value
2022-10-13T00:00:02.271Z,63.28
2022-10-13T00:00:46.272Z,63.42
2022-10-13T00:01:24.830Z,63.29
2022-10-13T00:01:57.103Z,63.62
2022-10-13T00:02:29.226Z,63.67
2022-10-13T00:03:02.106Z,63.72
2022-10-13T00:03:36.787Z,63.56
2022-10-13T00:04:09.002Z,63.46
2022-10-13T00:04:41.242Z,63.57
2022-10-13T00:05:15.932Z,63.56
2022-10-13T00:05:49.646Z,63.71
2022-10-13T00:06:24.002Z,63.62
2022-10-13T00:06:58.773Z,63.48
2022-10-13T00:07:31.414Z,63.72
2022-10-13T00:08:03.573Z,63.88
2022-10-13T00:08:39.340Z,63.44
2022-10-13T00:09:11.467Z,63.66
2022-10-13T00:09:43.563Z,63.87
2022-10-13T00:10:18.319Z,63.87
2022-10-13T00:10:54.271Z,64.02
2022-10-13T00:11:30.359Z,64.07
2022-10-13T00:12:05.205Z,64.19
2022-10-13T00:12:37.609Z,63.98
2022-10-13T00:13:10.585Z,64.42
2022-10-13T00:13:46.166Z,64.24
2022-10-13T00:14:18.322Z,64.33
2022-10-13T00:14:50.503Z,64.40
2022-10-13T00:15:26.181Z,64.38
2022-10-13T00:15:58.383Z,64.47
2022-10-13T00:16:33.288Z,64.34
2022-10-13T00:17:07.959Z,64.73
2022-10-13T00:17:41.914Z,66.00
2022-10-13T00:18:14.389Z,65.35
2022-10-13T00:18:49.688Z,65.32
2022-10-13T00:19:21.852Z,65.36
2022-10-13T00:19:53.983Z,64.72
2022-10-13T00:20:28.742Z,65.11
2022-10-13T00:21:00.887Z,64.82
2022-10-13T00:21:33.118Z,65.16
2022-10-13T00:22:07.833Z,65.08
2022-10-13T00:22:39.954Z,65.02
2022-10-13T00:23:12.182Z,64.87
2022-10-13T00:23:47.183Z,64.87
2022-10-13T00:24:24.190Z,64.59
2022-10-13T00:24:56.291Z,65.08
2022-10-13T00:25:31.067Z,64.62
2022-10-13T00:26:09.110Z,65.05
2022-10-13T00:26:41.262Z,64.95
2022-10-13T00:27:24.717Z,64.90
2022-10-13T00:27:56.813Z,65.21
2022-10-13T00:28:40.033Z,65.26
2022-10-13T00:29:12.197Z,65.33
2022-10-13T00:29:44.465Z,65.21
2022-10-13T00:30:19.394Z,65.24
2022-10-13T00:30:52.419Z,65.23
2022-10-13T00:31:26.615Z,65.35
2022-10-13T00:32:01.375Z,65.46
2022-10-13T00:32:33.557Z,65.30
2022-10-13T00:33:06.560Z,65.39
2022-10-13T00:33:41.299Z,64.95
2022-10-13T00:34:13.646Z,65.05
2022-10-13T00:34:45.798Z,64.98
2022-10-13T00:35:20.479Z,65.41
2022-10-13T00:35:52.647Z,64.96
2022-10-13T00:36:27.839Z,64.85
2022-10-13T00:37:00.045Z,64.82
2022-10-13T00:37:32.259Z,64.45
2022-10-13T00:38:06.926Z,64.39
2022-10-13T00:38:39.070Z,64.60
2022-10-13T00:39:11.200Z,64.10
2022-10-13T00:39:46.001Z,64.12
2022-10-13T00:40:19.302Z,64.35
2022-10-13T00:40:55.833Z,64.37
2022-10-13T00:41:30.583Z,64.07
2022-10-13T00:42:03.174Z,64.36
2022-10-13T00:42:37.905Z,64.15
2022-10-13T00:43:16.591Z,64.00
2022-10-13T00:43:52.319Z,64.21
2022-10-13T00:44:58.657Z,64.15
2022-10-13T00:45:30.804Z,64.42
2022-10-13T00:46:02.946Z,64.48
2022-10-13T00:46:39.758Z,64.48
2022-10-13T00:47:11.959Z,64.92
2022-10-13T00:47:48.542Z,64.53
2022-10-13T00:48:28.134Z,64.63
2022-10-13T00:49:05.220Z,64.46
2022-10-13T00:49:37.517Z,64.30
2022-10-13T00:50:15.225Z,64.60
2022-10-13T00:50:47.790Z,64.47
2022-10-13T00:51:22.730Z,64.26
2022-10-13T00:51:58.254Z,64.33
2022-10-13T00:52:32.219Z,64.46
2022-10-13T00:53:05.951Z,64.04
2022-10-13T00:53:42.533Z,64.26
2022-10-13T00:54:17.839Z,64.21
2022-10-13T00:54:50.841Z,64.42
2022-10-13T00:55:28.897Z,64.20
2022-10-13T00:56:01.577Z,64.16
2022-10-13T00:56:43.008Z,64.11
2022-10-13T00:57:15.831Z,63.99
2022-10-13T00:57:54.753Z,64.32
2022-10-13T00:58:38.943Z,63.96
2022-10-13T00:59:17.489Z,63.86
2022-10-13T00:59:50.170Z,64.36
2022-10-13T01:00:26.683Z,63.96
2022-10-13T01:01:00.021Z,64.30
2022-10-13T01:01:32.470Z,64.25
2022-10-13T01:02:07.504Z,63.85
2022-10-13T01:02:39.900Z,63.81
2022-10-13T01:03:12.061Z,64.07
2022-10-13T01:03:46.932Z,64.13
2022-10-13T01:04:22.834Z,64.04
2022-10-13T01:04:56.993Z,64.34
2022-10-13T01:05:33.402Z,64.25
2022-10-13T01:06:07.723Z,64.76
2022-10-13T01:06:40.790Z,64.55
2022-10-13T01:07:14.957Z,64.39
2022-10-13T01:07:51.570Z,64.53
2022-10-13T01:08:27.051Z,64.60
2022-10-13T01:09:02.120Z,64.68
2022-10-13T01:09:38.050Z,64.80
2022-10-13T01:10:10.156Z,64.69
2022-10-13T01:10:56.148Z,65.02
2022-10-13T01:11:58.774Z,65.06
2022-10-13T01:12:43.169Z,64.86
2022-10-13T01:13:22.561Z,64.90
2022-10-13T01:14:06.438Z,64.84
2022-10-13T01:14:48.364Z,64.79
2022-10-13T01:15:28.335Z,65.01
2022-10-13T01:16:10.808Z,65.04
2022-10-13T01:16:55.035Z,65.41
2022-10-13T01:17:33.523Z,65.70
2022-10-13T01:18:19.157Z,65.14
2022-10-13T01:19:00.910Z,64.79
2022-10-13T01:19:56.340Z,65.06
2022-10-13T01:20:55.773Z,65.17
2022-10-13T01:21:33.423Z,65.32
2022-10-13T01:22:23.854Z,65.12
2022-10-13T01:23:12.638Z,65.14
2022-10-13T01:24:25.549Z,65.20
2022-10-13T01:25:07.353Z,65.37
2022-10-13T01:26:01.667Z,65.84
2022-10-13T01:27:03.109Z,64.96
2022-10-13T01:27:58.918Z,64.96
2022-10-13T01:28:51.316Z,65.44
2022-10-13T01:30:02.435Z,65.07
2022-10-13T01:30:40.565Z,65.21
2022-10-13T01:31:20.557Z,65.39
2022-10-13T01:32:01.513Z,65.23
2022-10-13T01:32:47.043Z,65.19
2022-10-13T01:33:30.709Z,65.34
2022-10-13T01:34:11.315Z,65.00
2022-10-13T01:34:55.525Z,64.98
2022-10-13T01:35:41.503Z,65.00
2022-10-13T01:36:27.633Z,65.03
2022-10-13T01:37:08.323Z,64.86
2022-10-13T01:37:47.696Z,64.99
2022-10-13T01:38:33.025Z,64.55
2022-10-13T01:39:14.503Z,64.68
2022-10-13T01:39:56.454Z,64.90
2022-10-13T01:40:33.430Z,64.61
2022-10-13T01:41:16.489Z,64.87
2022-10-13T01:41:52.712Z,64.38
2022-10-13T01:42:30.387Z,64.82
2022-10-13T01:43:09.847Z,64.61
2022-10-13T01:43:46.942Z,64.75
2022-10-13T01:44:28.412Z,64.47
2022-10-13T01:45:03.609Z,64.52
2022-10-13T01:45:44.922Z,64.80
2022-10-13T01:46:24.955Z,64.84
2022-10-13T01:46:57.876Z,64.79
2022-10-13T01:47:32.601Z,65.18
2022-10-13T01:48:09.010Z,64.95
2022-10-13T01:48:46.400Z,65.02
2022-10-13T01:49:22.214Z,64.95
2022-10-13T01:49:59.222Z,65.21
2022-10-13T01:50:34.730Z,64.97
2022-10-13T01:51:09.828Z,65.09
2022-10-13T01:51:45.457Z,65.11
2022-10-13T01:52:20.814Z,65.18
2022-10-13T01:52:53.522Z,65.14
2022-10-13T01:53:29.384Z,65.23
2022-10-13T01:54:01.567Z,64.87
2022-10-13T01:54:33.863Z,65.11
2022-10-13T01:55:10.697Z,65.10
2022-10-13T01:55:53.441Z,64.98
2022-10-13T01:56:25.568Z,64.97
2022-10-13T01:57:00.318Z,65.20
2022-10-13T01:57:36.160Z,65.00
2022-10-13T01:58:11.231Z,65.07
2022-10-13T01:58:47.355Z,65.32
2022-10-13T01:59:20.096Z,65.39
2022-10-13T01:59:52.419Z,64.95
2022-10-13T02:00:28.058Z,65.14
2022-10-13T02:01:14.084Z,65.24
2022-10-13T02:01:59.833Z,65.17
2022-10-13T02:02:37.637Z,65.40
2022-10-13T02:03:17.945Z,65.27
2022-10-13T02:04:04.083Z,65.46
2022-10-13T02:04:48.316Z,65.31
2022-10-13T02:05:29.635Z,65.43
2022-10-13T02:06:16.064Z,65.43
2022-10-13T02:06:53.717Z,65.19
2022-10-13T02:07:31.339Z,65.41
2022-10-13T02:08:11.587Z,65.28
2022-10-13T02:08:46.345Z,65.59
2022-10-13T02:09:26.390Z,65.37
2022-10-13T02:10:08.725Z,65.55
2022-10-13T02:10:47.640Z,65.31
2022-10-13T02:11:22.348Z,65.43
2022-10-13T02:12:04.719Z,64.84
2022-10-13T02:12:47.121Z,64.91
2022-10-13T02:13:25.188Z,65.11
2022-10-13T02:14:06.335Z,64.88
2022-10-13T02:14:42.562Z,65.46
2022-10-13T02:15:20.064Z,65.33
2022-10-13T02:15:58.056Z,65.08
2022-10-13T02:16:37.368Z,65.01
2022-10-13T02:17:10.541Z,65.13
2022-10-13T02:17:47.609Z,65.22
2022-10-13T02:18:25.944Z,65.17
2022-10-13T02:18:58.807Z,64.99
2022-10-13T02:19:36.291Z,65.32
2022-10-13T02:20:10.484Z,65.61
2022-10-13T02:20:44.485Z,65.04
2022-10-13T02:21:20.261Z,65.59
2022-10-13T02:21:53.518Z,65.36
2022-10-13T02:22:32.830Z,65.41
2022-10-13T02:23:15.154Z,65.46
2022-10-13T02:23:47.429Z,65.47
2022-10-13T02:24:19.874Z,65.80
2022-10-13T02:24:52.453Z,65.40
2022-10-13T02:25:28.687Z,65.27
2022-10-13T02:26:01.783Z,65.67
2022-10-13T02:26:35.350Z,65.39
2022-10-13T02:27:13.974Z,65.49
2022-10-13T02:27:46.245Z,65.97
2022-10-13T02:28:19.380Z,65.78
2022-10-13T02:28:55.290Z,65.80
2022-10-13T02:29:27.417Z,65.84
2022-10-13T02:29:59.637Z,65.85
2022-10-13T02:30:37.453Z,66.13
2022-10-13T02:31:09.892Z,65.78
2022-10-13T02:31:45.852Z,66.00
2022-10-13T02:32:21.046Z,65.95
2022-10-13T02:32:53.549Z,66.05
2022-10-13T02:33:25.682Z,66.05
2022-10-13T02:34:00.410Z,65.90
2022-10-13T02:34:32.494Z,66.14
2022-10-13T02:35:06.285Z,66.03
2022-10-13T02:35:41.416Z,65.81
2022-10-13T02:36:13.552Z,65.52
2022-10-13T02:36:45.657Z,65.57
2022-10-13T02:37:20.779Z,65.76
2022-10-13T02:37:52.994Z,65.53
2022-10-13T02:38:25.167Z,65.47
2022-10-13T02:38:59.983Z,65.31
2022-10-13T02:39:32.143Z,65.58
2022-10-13T02:40:06.218Z,65.35
2022-10-13T02:40:41.061Z,64.88
2022-10-13T02:41:13.146Z,65.20
2022-10-13T02:41:45.279Z,65.42
2022-10-13T02:42:18.004Z,64.88
2022-10-13T02:42:53.205Z,64.96
2022-10-13T02:43:25.635Z,65.00
2022-10-13T02:43:57.744Z,65.42
2022-10-13T02:44:39.536Z,65.50
2022-10-13T02:45:11.680Z,65.14
2022-10-13T02:45:43.854Z,65.63
2022-10-13T02:46:18.589Z,65.28
2022-10-13T02:46:53.773Z,65.22
2022-10-13T02:47:25.926Z,65.37
2022-10-13T02:48:00.771Z,65.29
2022-10-13T02:48:32.973Z,65.34
2022-10-13T02:49:05.098Z,65.48
2022-10-13T02:49:39.835Z,65.40
2022-10-13T02:50:12.214Z,65.60
2022-10-13T02:50:44.323Z,65.55
2022-10-13T02:51:19.018Z,65.62
2022-10-13T02:51:51.136Z,65.39
2022-10-13T02:52:23.442Z,65.42
2022-10-13T02:52:58.224Z,65.68
2022-10-13T02:53:30.406Z,65.77
2022-10-13T02:54:02.572Z,65.33
2022-10-13T02:54:37.290Z,65.21
2022-10-13T02:55:09.650Z,65.66
2022-10-13T02:55:43.344Z,65.56
2022-10-13T02:56:19.020Z,65.26
2022-10-13T02:56:51.202Z,65.62
2022-10-13T02:57:23.635Z,65.68
2022-10-13T02:57:57.950Z,65.55
2022-10-13T02:58:32.615Z,65.30
2022-10-13T02:59:06.506Z,65.81
2022-10-13T02:59:38.641Z,65.76
2022-10-13T03:00:14.949Z,65.78
2022-10-13T03:00:47.113Z,65.90
2022-10-13T03:01:19.268Z,65.94
2022-10-13T03:01:56.957Z,65.69
2022-10-13T03:02:29.222Z,65.62
2022-10-13T03:03:01.598Z,65.28
2022-10-13T03:03:36.308Z,65.47
2022-10-13T03:04:09.198Z,65.77
2022-10-13T03:04:41.337Z,65.56
2022-10-13T03:05:16.066Z,65.54
2022-10-13T03:05:48.167Z,65.63
2022-10-13T03:06:21.720Z,65.39
2022-10-13T03:06:56.420Z,65.44
2022-10-13T03:07:28.550Z,65.53
2022-10-13T03:08:00.681Z,65.37
2022-10-13T03:08:36.841Z,65.18
2022-10-13T03:09:09.018Z,65.26
2022-10-13T03:09:41.942Z,65.13
2022-10-13T03:10:16.602Z,65.38
2022-10-13T03:10:48.820Z,65.52
2022-10-13T03:11:20.975Z,65.62
2022-10-13T03:11:55.643Z,65.49
2022-10-13T03:12:27.806Z,65.61
2022-10-13T03:12:59.884Z,65.54
2022-10-13T03:13:34.606Z,65.48
2022-10-13T03:14:11.760Z,65.10
2022-10-13T03:14:43.923Z,65.27
2022-10-13T03:15:18.866Z,65.75
2022-10-13T03:15:52.188Z,65.59
2022-10-13T03:16:24.391Z,65.09
2022-10-13T03:17:01.706Z,65.46
2022-10-13T03:17:33.883Z,65.22
2022-10-13T03:18:06.513Z,65.40
2022-10-13T03:18:41.207Z,65.67
2022-10-13T03:19:13.360Z,65.31
2022-10-13T03:19:45.517Z,65.58
2022-10-13T03:20:24.806Z,65.50
2022-10-13T03:20:58.352Z,65.85
2022-10-13T03:21:30.670Z,65.59
2022-10-13T03:22:05.376Z,65.71
2022-10-13T03:22:37.528Z,65.69
2022-10-13T03:23:09.702Z,65.80
2022-10-13T03:23:44.430Z,65.49
2022-10-13T03:24:16.621Z,65.49
2022-10-13T03:24:48.728Z,65.55
2022-10-13T03:25:23.415Z,65.90
2022-10-13T03:25:56.963Z,65.54
2022-10-13T03:26:29.068Z,65.98
2022-10-13T03:27:03.988Z,65.73
2022-10-13T03:27:36.271Z,65.75
2022-10-13T03:28:08.443Z,65.67
2022-10-13T03:28:44.267Z,65.56
2022-10-13T03:29:18.390Z,65.81
2022-10-13T03:29:53.094Z,65.58
2022-10-13T03:30:25.542Z,65.37
2022-10-13T03:31:01.888Z,65.72
2022-10-13T03:31:36.586Z,65.61
2022-10-13T03:32:11.315Z,65.53
2022-10-13T03:32:43.651Z,65.54
2022-10-13T03:33:18.802Z,65.40
2022-10-13T03:33:51.692Z,65.44
2022-10-13T03:34:23.934Z,65.16
2022-10-13T03:34:56.175Z,65.06
2022-10-13T03:35:30.857Z,65.44
2022-10-13T03:36:05.878Z,64.86
2022-10-13T03:36:40.590Z,64.81
2022-10-13T03:37:12.701Z,64.99
2022-10-13T03:37:46.752Z,65.25
2022-10-13T03:38:21.450Z,65.06
2022-10-13T03:38:53.562Z,64.70
2022-10-13T03:39:26.006Z,64.71
2022-10-13T03:39:58.193Z,64.65
2022-10-13T03:40:32.873Z,64.86
2022-10-13T03:41:06.257Z,64.62
2022-10-13T03:41:38.362Z,64.59
2022-10-13T03:42:13.279Z,65.00
2022-10-13T03:42:46.056Z,64.80
2022-10-13T03:43:18.193Z,64.78
2022-10-13T03:43:53.092Z,64.91
2022-10-13T03:44:25.421Z,65.01
2022-10-13T03:44:57.565Z,64.97
2022-10-13T03:45:32.255Z,64.97
2022-10-13T03:46:05.914Z,65.35
2022-10-13T03:46:38.100Z,65.30
2022-10-13T03:47:15.431Z,65.31
2022-10-13T03:47:47.658Z,65.28
2022-10-13T03:48:19.887Z,65.56
2022-10-13T03:48:54.691Z,65.52
2022-10-13T03:49:26.991Z,65.86
2022-10-13T03:49:59.160Z,65.54
2022-10-13T03:50:33.890Z,65.74
2022-10-13T03:51:07.503Z,65.68
2022-10-13T03:51:40.209Z,65.95
2022-10-13T03:52:14.967Z,65.85
2022-10-13T03:52:47.137Z,65.76
2022-10-13T03:53:19.321Z,65.47
2022-10-13T03:53:55.626Z,65.92
2022-10-13T03:54:27.972Z,65.58
2022-10-13T03:55:00.125Z,65.64
2022-10-13T03:55:34.807Z,65.85
2022-10-13T03:56:08.062Z,65.78
2022-10-13T03:56:50.431Z,65.56
2022-10-13T03:57:22.605Z,65.78
2022-10-13T03:57:54.731Z,65.29
2022-10-13T03:58:30.186Z,65.64
2022-10-13T03:59:05.038Z,65.43
2022-10-13T03:59:39.869Z,65.17
2022-10-13T04:00:13.853Z,65.42
2022-10-13T04:00:46.200Z,65.20
2022-10-13T04:01:18.397Z,65.32
2022-10-13T04:01:54.380Z,65.60
2022-10-13T04:02:29.151Z,65.03
2022-10-13T04:03:03.545Z,65.14
2022-10-13T04:03:38.258Z,65.18
2022-10-13T04:04:11.599Z,65.31
2022-10-13T04:04:47.093Z,65.23
2022-10-13T04:05:21.749Z,64.92
2022-10-13T04:05:53.883Z,64.74
2022-10-13T04:06:26.970Z,64.79
2022-10-13T04:07:01.699Z,64.93
2022-10-13T04:07:33.901Z,64.69
2022-10-13T04:08:10.420Z,64.68
2022-10-13T04:08:45.351Z,65.04
2022-10-13T04:09:17.607Z,64.98
2022-10-13T04:09:49.926Z,64.66
2022-10-13T04:10:24.579Z,65.15
2022-10-13T04:11:00.354Z,65.07
2022-10-13T04:11:32.767Z,65.02
2022-10-13T04:12:07.973Z,64.91
2022-10-13T04:12:40.068Z,64.71
2022-10-13T04:13:12.214Z,65.04
2022-10-13T04:13:49.163Z,64.85
2022-10-13T04:14:21.396Z,64.93
2022-10-13T04:14:56.144Z,65.01
2022-10-13T04:15:28.242Z,65.28
2022-10-13T04:16:03.353Z,65.50
2022-10-13T04:16:39.822Z,65.54
2022-10-13T04:17:12.406Z,65.67
2022-10-13T04:17:47.166Z,65.20
2022-10-13T04:18:21.947Z,65.63
2022-10-13T04:18:57.574Z,65.55
2022-10-13T04:19:29.703Z,65.89
2022-10-13T04:20:04.511Z,65.63
2022-10-13T04:20:38.635Z,65.74
2022-10-13T04:21:11.810Z,65.75
2022-10-13T04:21:46.685Z,65.71
2022-10-13T04:22:19.183Z,65.59
2022-10-13T04:22:53.199Z,65.58
2022-10-13T04:23:28.016Z,65.53
2022-10-13T04:24:01.090Z,65.80
2022-10-13T04:24:33.256Z,65.46
2022-10-13T04:25:09.750Z,65.89
2022-10-13T04:25:41.945Z,65.44
2022-10-13T04:26:19.068Z,65.69
2022-10-13T04:26:53.851Z,65.69
2022-10-13T04:27:27.036Z,65.54
2022-10-13T04:27:59.467Z,65.40
2022-10-13T04:28:36.044Z,65.67
2022-10-13T04:29:10.135Z,65.81
2022-10-13T04:29:42.452Z,65.88
2022-10-13T04:30:17.812Z,65.67
2022-10-13T04:30:50.351Z,65.71
2022-10-13T04:31:23.171Z,65.74
2022-10-13T04:31:57.942Z,66.21
2022-10-13T04:32:30.054Z,65.87
2022-10-13T04:33:04.914Z,65.92
2022-10-13T04:33:37.057Z,66.23
2022-10-13T04:34:12.379Z,66.06
2022-10-13T04:34:44.804Z,65.88
2022-10-13T04:35:17.631Z,66.00
2022-10-13T04:35:52.291Z,66.16
2022-10-13T04:36:24.689Z,66.07
2022-10-13T04:36:59.371Z,65.90
2022-10-13T04:37:31.503Z,66.01
2022-10-13T04:38:03.863Z,66.08
2022-10-13T04:38:38.965Z,65.89
2022-10-13T04:39:11.062Z,66.02
2022-10-13T04:39:43.207Z,66.00
2022-10-13T04:40:18.431Z,65.75
2022-10-13T04:40:50.560Z,66.03
2022-10-13T04:41:23.394Z,65.52
2022-10-13T04:41:58.260Z,66.11
2022-10-13T04:42:30.423Z,65.91
2022-10-13T04:43:02.633Z,65.68
2022-10-13T04:43:37.506Z,65.46
2022-10-13T04:44:09.644Z,65.49
2022-10-13T04:44:42.081Z,65.57
2022-10-13T04:45:19.961Z,65.11
2022-10-13T04:46:00.007Z,65.36
2022-10-13T04:46:32.188Z,65.11
2022-10-13T04:47:07.314Z,65.34
2022-10-13T04:47:39.844Z,65.56
2022-10-13T04:48:14.786Z,65.37
2022-10-13T04:48:50.250Z,65.67
2022-10-13T04:49:22.510Z,65.41
2022-10-13T04:49:54.685Z,65.65
2022-10-13T04:50:30.522Z,65.32
2022-10-13T04:51:09.109Z,65.41
2022-10-13T04:51:41.276Z,65.55
2022-10-13T04:52:15.957Z,65.68
2022-10-13T04:52:49.965Z,65.24
2022-10-13T04:53:24.658Z,65.54
2022-10-13T04:54:01.210Z,65.46
2022-10-13T04:54:33.321Z,65.46
2022-10-13T04:55:06.620Z,65.49
2022-10-13T04:55:41.320Z,65.46
2022-10-13T04:56:15.410Z,65.47
2022-10-13T04:56:50.152Z,65.80
2022-10-13T04:57:22.293Z,65.73
2022-10-13T04:57:54.377Z,65.59
2022-10-13T04:58:29.050Z,65.79
2022-10-13T04:59:06.632Z,66.20
2022-10-13T04:59:38.778Z,66.29
2022-10-13T05:00:14.745Z,66.21
2022-10-13T05:00:46.970Z,66.24
2022-10-13T05:01:22.514Z,65.94
2022-10-13T05:01:57.684Z,66.43
2022-10-13T05:02:29.832Z,66.31
2022-10-13T05:03:01.929Z,66.01
2022-10-13T05:03:39.285Z,66.24
2022-10-13T05:04:11.832Z,66.40
2022-10-13T05:04:43.964Z,66.03
2022-10-13T05:05:18.858Z,66.15
2022-10-13T05:05:51.229Z,66.26
2022-10-13T05:06:25.154Z,66.50
2022-10-13T05:07:17.454Z,66.32
2022-10-13T05:07:50.998Z,66.17
2022-10-13T05:08:23.200Z,66.19
2022-10-13T05:08:58.149Z,66.20
2022-10-13T05:09:30.300Z,66.00
2022-10-13T05:10:02.454Z,66.16
2022-10-13T05:10:37.246Z,66.12
2022-10-13T05:11:09.547Z,66.12
2022-10-13T05:11:41.837Z,66.11
2022-10-13T05:12:16.615Z,66.05
2022-10-13T05:12:48.799Z,65.85
2022-10-13T05:13:21.071Z,65.75
2022-10-13T05:13:58.327Z,65.54
2022-10-13T05:14:32.354Z,65.63
2022-10-13T05:15:06.538Z,65.41
2022-10-13T05:15:42.310Z,65.37
2022-10-13T05:16:16.343Z,65.22
2022-10-13T05:16:49.228Z,65.55
2022-10-13T05:17:24.040Z,65.18
2022-10-13T05:17:56.188Z,65.47
2022-10-13T05:18:28.302Z,65.40
2022-10-13T05:19:07.792Z,65.02
2022-10-13T05:19:40.104Z,65.02
2022-10-13T05:20:12.825Z,64.78
2022-10-13T05:20:47.693Z,64.71
2022-10-13T05:21:22.198Z,64.73
2022-10-13T05:21:54.295Z,64.81
2022-10-13T05:22:30.803Z,64.68
2022-10-13T05:23:03.061Z,64.65
2022-10-13T05:23:35.380Z,64.67
2022-10-13T05:24:13.787Z,64.64
2022-10-13T05:24:46.239Z,64.95
2022-10-13T05:25:18.901Z,64.86
2022-10-13T05:25:53.720Z,64.72
2022-10-13T05:26:29.302Z,64.89
2022-10-13T05:27:01.610Z,64.79
2022-10-13T05:27:36.368Z,64.45
2022-10-13T05:28:10.799Z,64.96
2022-10-13T05:28:43.844Z,64.79
2022-10-13T05:29:19.098Z,64.71
2022-10-13T05:29:51.432Z,64.92
2022-10-13T05:30:26.497Z,64.80
2022-10-13T05:31:08.448Z,65.41
2022-10-13T05:31:43.259Z,65.47
2022-10-13T05:32:15.534Z,65.28
2022-10-13T05:32:51.564Z,65.11
2022-10-13T05:33:29.695Z,65.63
2022-10-13T05:34:04.412Z,65.41
2022-10-13T05:34:39.170Z,65.82
2022-10-13T05:35:11.323Z,65.89
2022-10-13T05:35:45.693Z,65.60
2022-10-13T05:36:23.219Z,65.68
2022-10-13T05:36:55.362Z,65.86
2022-10-13T05:37:27.690Z,65.85
2022-10-13T05:38:02.371Z,65.86
2022-10-13T05:38:36.666Z,65.54
2022-10-13T05:39:10.133Z,65.50
2022-10-13T05:39:48.622Z,65.42
2022-10-13T05:40:21.570Z,65.44
2022-10-13T05:40:53.660Z,65.39
2022-10-13T05:41:30.218Z,65.40
2022-10-13T05:42:02.330Z,65.29
2022-10-13T05:42:36.159Z,65.16
2022-10-13T05:43:08.320Z,65.42
2022-10-13T05:43:44.647Z,65.17
2022-10-13T05:44:17.594Z,65.23
2022-10-13T05:44:58.739Z,65.22
2022-10-13T05:45:35.807Z,64.82
2022-10-13T05:46:08.698Z,65.26
2022-10-13T05:46:41.497Z,64.91
2022-10-13T05:47:16.166Z,64.89
2022-10-13T05:47:50.622Z,64.92
2022-10-13T05:48:22.763Z,64.64
2022-10-13T05:48:57.458Z,64.69
2022-10-13T05:49:36.484Z,64.44
2022-10-13T05:50:09.043Z,64.67
2022-10-13T05:50:44.801Z,64.79
2022-10-13T05:51:22.989Z,64.81
2022-10-13T05:52:00.089Z,64.75
2022-10-13T05:52:33.753Z,64.33
2022-10-13T05:53:08.446Z,64.51
2022-10-13T05:53:49.106Z,64.73
2022-10-13T05:54:30.259Z,64.59
2022-10-13T05:55:05.813Z,64.56
2022-10-13T05:55:38.630Z,64.50
2022-10-13T05:56:17.607Z,64.61
2022-10-13T05:56:54.603Z,64.25
2022-10-13T05:57:33.146Z,64.58
2022-10-13T05:58:05.368Z,64.56
2022-10-13T05:58:41.196Z,64.64
2022-10-13T05:59:21.359Z,64.35
2022-10-13T05:59:59.510Z,64.98
2022-10-13T06:00:34.357Z,64.86
2022-10-13T06:01:08.344Z,64.96
2022-10-13T06:01:42.375Z,64.49
2022-10-13T06:02:20.029Z,64.75
2022-10-13T06:02:59.678Z,64.67
2022-10-13T06:03:35.065Z,64.78
2022-10-13T06:04:13.019Z,64.84
2022-10-13T06:04:55.745Z,64.74
2022-10-13T06:05:28.646Z,65.09
2022-10-13T06:06:01.563Z,64.61
2022-10-13T06:06:36.795Z,64.31
2022-10-13T06:07:09.900Z,64.82
2022-10-13T06:07:46.491Z,64.73
2022-10-13T06:08:18.972Z,64.76
2022-10-13T06:08:51.973Z,65.01
2022-10-13T06:09:26.735Z,64.92
2022-10-13T06:09:59.368Z,64.87
2022-10-13T06:10:32.445Z,65.16
2022-10-13T06:11:08.482Z,65.11
2022-10-13T06:11:41.106Z,64.88
2022-10-13T06:12:15.847Z,65.00
2022-10-13T06:12:48.235Z,65.20
2022-10-13T06:13:20.404Z,64.91
2022-10-13T06:13:55.118Z,64.86
2022-10-13T06:14:27.262Z,64.62
2022-10-13T06:15:01.975Z,65.02
2022-10-13T06:15:34.142Z,64.55
2022-10-13T06:16:06.938Z,64.54
2022-10-13T06:16:42.701Z,64.86
2022-10-13T06:17:14.959Z,64.50
2022-10-13T06:17:48.469Z,64.55
2022-10-13T06:18:23.309Z,64.92
2022-10-13T06:18:55.581Z,64.63
2022-10-13T06:19:28.519Z,64.69
2022-10-13T06:20:06.268Z,64.59
2022-10-13T06:20:38.662Z,64.68
2022-10-13T06:21:10.823Z,64.30
2022-10-13T06:21:45.524Z,64.50
2022-10-13T06:22:18.086Z,64.64
2022-10-13T06:22:51.194Z,64.36
2022-10-13T06:23:25.960Z,64.23
2022-10-13T06:23:58.124Z,64.14
2022-10-13T06:24:30.634Z,64.41
2022-10-13T06:25:05.602Z,64.21
2022-10-13T06:25:37.759Z,63.75
2022-10-13T06:26:12.492Z,64.14
2022-10-13T06:26:44.619Z,63.67
2022-10-13T06:27:16.758Z,63.88
2022-10-13T06:27:52.197Z,63.72
2022-10-13T06:28:27.499Z,63.55
2022-10-13T06:29:00.289Z,63.57
2022-10-13T06:29:36.255Z,63.79
2022-10-13T06:30:09.774Z,63.83
2022-10-13T06:30:48.041Z,63.65
2022-10-13T06:31:20.446Z,63.46
2022-10-13T06:31:55.381Z,63.21
2022-10-13T06:32:27.592Z,63.40
2022-10-13T06:33:02.417Z,63.40
2022-10-13T06:33:35.539Z,63.16
2022-10-13T06:34:10.356Z,63.55
2022-10-13T06:34:42.539Z,63.60
2022-10-13T06:35:17.536Z,63.66
2022-10-13T06:35:52.730Z,63.20
2022-10-13T06:36:25.078Z,63.21
2022-10-13T06:36:57.174Z,63.42
2022-10-13T06:37:31.910Z,63.27
2022-10-13T06:38:04.023Z,63.42
2022-10-13T06:38:36.587Z,63.25
2022-10-13T06:39:12.104Z,63.66
2022-10-13T06:39:44.354Z,63.27
2022-10-13T06:40:17.108Z,63.21
2022-10-13T06:40:51.894Z,63.35
2022-10-13T06:41:26.143Z,63.62
2022-10-13T06:41:58.228Z,63.06
2022-10-13T06:42:37.242Z,63.37
2022-10-13T06:43:15.410Z,63.59
2022-10-13T06:43:47.598Z,63.67
2022-10-13T06:44:24.457Z,63.41
2022-10-13T06:44:57.148Z,63.50
2022-10-13T06:45:29.321Z,63.40
2022-10-13T06:46:04.702Z,63.28
2022-10-13T06:46:36.963Z,63.56
2022-10-13T06:47:09.130Z,63.36
2022-10-13T06:47:44.013Z,63.12
2022-10-13T06:48:16.285Z,63.64
2022-10-13T06:48:50.139Z,63.68
2022-10-13T06:49:26.605Z,63.18
2022-10-13T06:49:58.825Z,63.29
2022-10-13T06:50:33.732Z,63.39
2022-10-13T06:51:11.263Z,63.45
2022-10-13T06:51:43.388Z,63.18
2022-10-13T06:52:18.399Z,63.39
2022-10-13T06:52:50.841Z,62.83
2022-10-13T06:53:23.014Z,63.37
2022-10-13T06:53:58.611Z,63.15
2022-10-13T06:54:31.169Z,63.16
2022-10-13T06:55:03.652Z,62.93
2022-10-13T06:55:40.148Z,63.01
2022-10-13T06:56:13.068Z,63.04
2022-10-13T06:56:47.794Z,63.09
2022-10-13T06:57:19.922Z,62.63
2022-10-13T06:57:52.090Z,62.50
2022-10-13T06:58:26.875Z,62.44
2022-10-13T06:58:59.166Z,62.39
2022-10-13T06:59:31.301Z,62.49
2022-10-13T07:00:07.836Z,62.47
2022-10-13T07:00:41.689Z,62.58
2022-10-13T07:01:14.988Z,62.55
2022-10-13T07:01:51.861Z,62.44
2022-10-13T07:02:26.769Z,62.69
2022-10-13T07:03:01.478Z,62.68
2022-10-13T07:03:33.698Z,62.61
2022-10-13T07:04:06.412Z,62.73
2022-10-13T07:04:41.221Z,62.39
2022-10-13T07:05:13.413Z,62.57
2022-10-13T07:05:48.302Z,62.56
2022-10-13T07:06:23.678Z,62.45
2022-10-13T07:06:56.152Z,62.34
2022-10-13T07:07:28.412Z,62.44
2022-10-13T07:08:04.322Z,62.50
2022-10-13T07:08:36.906Z,62.77
2022-10-13T07:09:11.865Z,62.34
2022-10-13T07:09:44.075Z,62.60
2022-10-13T07:10:16.346Z,62.57
2022-10-13T07:10:51.134Z,62.66
2022-10-13T07:11:23.337Z,62.88
2022-10-13T07:11:59.918Z,62.66
2022-10-13T07:12:32.943Z,62.86
2022-10-13T07:13:07.738Z,62.36
2022-10-13T07:13:45.289Z,62.56
2022-10-13T07:14:23.243Z,62.55
2022-10-13T07:14:55.411Z,62.58
2022-10-13T07:15:27.620Z,62.24
2022-10-13T07:16:04.954Z,62.64
2022-10-13T07:16:37.124Z,62.18
2022-10-13T07:17:13.032Z,62.33
2022-10-13T07:17:45.607Z,62.38
2022-10-13T07:18:20.314Z,62.36
2022-10-13T07:18:52.466Z,62.80
2022-10-13T07:19:27.219Z,62.24
2022-10-13T07:20:01.326Z,62.39
2022-10-13T07:20:40.063Z,62.49
2022-10-13T07:21:15.087Z,62.50
2022-10-13T07:21:47.157Z,62.46
2022-10-13T07:22:21.941Z,61.92
2022-10-13T07:22:54.625Z,62.04
2022-10-13T07:23:27.698Z,62.03
2022-10-13T07:24:02.427Z,61.78
2022-10-13T07:24:34.604Z,61.99
2022-10-13T07:25:10.785Z,61.69
2022-10-13T07:25:42.999Z,61.92
2022-10-13T07:26:16.897Z,61.86
2022-10-13T07:26:51.640Z,61.91
2022-10-13T07:27:24.469Z,61.94
2022-10-13T07:28:01.362Z,61.93
2022-10-13T07:28:33.534Z,62.01
2022-10-13T07:29:05.728Z,62.01
2022-10-13T07:29:40.615Z,61.87
2022-10-13T07:30:13.278Z,62.34
2022-10-13T07:30:48.108Z,62.11
2022-10-13T07:31:21.288Z,62.00
2022-10-13T07:31:53.737Z,62.13